createdAt,value
2018-06-25T00:02:16.373Z,87.23
2018-06-25T00:04:44.499Z,87.91
2018-06-25T00:07:12.465Z,87.02
2018-06-25T00:09:40.511Z,86.55
2018-06-25T00:12:08.628Z,88.41
2018-06-25T00:14:36.692Z,87.62
2018-06-25T00:17:04.739Z,87.59
2018-06-25T00:19:32.838Z,88.12
2018-06-25T00:22:00.870Z,87.92
2018-06-25T00:24:28.964Z,87.48
2018-06-25T00:26:57.064Z,88.94
2018-06-25T00:29:25.053Z,87.05
2018-06-25T00:31:53.168Z,88.06
2018-06-25T00:34:21.299Z,87.86
2018-06-25T00:36:49.374Z,88.75
2018-06-25T00:39:17.351Z,87.89
2018-06-25T00:41:45.389Z,87.51
2018-06-25T00:44:16.662Z,85.81
2018-06-25T00:49:26.390Z,87.96
2018-06-25T00:51:54.414Z,88.55
2018-06-25T00:54:22.482Z,88.16
2018-06-25T00:56:50.505Z,88.06
2018-06-25T00:59:29.622Z,88.61
2018-06-25T01:01:57.637Z,87.04
2018-06-25T01:04:25.718Z,88.52
2018-06-25T01:06:53.816Z,87.65
2018-06-25T01:09:21.853Z,88.31
2018-06-25T01:11:49.912Z,88.29
2018-06-25T01:14:17.947Z,88.32
2018-06-25T01:16:45.954Z,87.76
2018-06-25T01:19:14.034Z,89.22
2018-06-25T01:21:42.036Z,88.57
2018-06-25T01:24:10.083Z,88.94
2018-06-25T01:26:38.232Z,89.29
2018-06-25T01:29:06.204Z,88.73
2018-06-25T01:31:34.575Z,89.04
2018-06-25T01:34:02.564Z,89.42
2018-06-25T01:36:30.677Z,90.57
2018-06-25T01:38:58.816Z,90.83
2018-06-25T01:41:26.844Z,90.44
2018-06-25T01:43:54.847Z,90.61
2018-06-25T01:46:22.878Z,90.36
2018-06-25T01:48:50.836Z,90.92
2018-06-25T01:51:18.857Z,91.24
2018-06-25T01:53:46.925Z,90.95
2018-06-25T01:56:14.949Z,90.17
2018-06-25T01:58:43.031Z,89.82
2018-06-25T02:01:11.075Z,90.33
2018-06-25T02:03:39.144Z,91.07
2018-06-25T02:06:07.359Z,89.92
2018-06-25T02:08:35.558Z,90.65
2018-06-25T02:11:03.652Z,91.41
2018-06-25T02:13:31.730Z,92.10
2018-06-25T02:15:59.849Z,91.74
2018-06-25T02:18:27.877Z,91.78
2018-06-25T02:20:55.886Z,92.37
2018-06-25T02:23:23.944Z,92.56
2018-06-25T02:25:51.955Z,93.35
2018-06-25T02:28:20.039Z,93.30
2018-06-25T02:30:48.146Z,92.64
2018-06-25T02:33:16.146Z,93.21
2018-06-25T02:35:44.161Z,92.99
2018-06-25T02:38:12.255Z,91.55
2018-06-25T02:40:40.323Z,92.60
2018-06-25T02:43:08.355Z,93.52
2018-06-25T02:45:36.336Z,93.02
2018-06-25T02:48:04.363Z,92.23
2018-06-25T02:50:32.449Z,92.31
2018-06-25T02:53:00.604Z,93.15
2018-06-25T02:55:28.594Z,92.84
2018-06-25T02:57:56.655Z,91.89
2018-06-25T03:00:24.791Z,92.09
2018-06-25T03:02:52.831Z,94.44
2018-06-25T03:05:20.901Z,93.45
2018-06-25T03:07:48.871Z,93.45
2018-06-25T03:10:17.024Z,91.17
2018-06-25T03:12:45.099Z,90.54
2018-06-25T03:15:13.288Z,91.61
2018-06-25T03:17:41.394Z,88.51
2018-06-25T03:20:09.745Z,88.67
2018-06-25T03:22:37.793Z,87.67
2018-06-25T03:25:05.787Z,88.75
2018-06-25T03:27:33.920Z,89.08
2018-06-25T03:30:02.001Z,89.57
2018-06-25T03:32:30.257Z,91.38
2018-06-25T03:34:58.439Z,90.60
2018-06-25T03:37:26.554Z,88.30
2018-06-25T03:39:54.586Z,90.29
2018-06-25T03:42:22.601Z,90.04
2018-06-25T03:44:50.873Z,90.01
2018-06-25T03:47:18.924Z,88.52
2018-06-25T03:49:47.016Z,88.24
2018-06-25T03:52:15.158Z,85.23
2018-06-25T03:54:43.297Z,85.27
2018-06-25T03:57:11.407Z,86.81
2018-06-25T03:59:39.731Z,87.10
2018-06-25T04:02:07.887Z,84.30
2018-06-25T04:04:35.889Z,85.63
2018-06-25T04:07:04.085Z,87.06
2018-06-25T04:09:32.110Z,85.28
2018-06-25T04:12:00.176Z,84.85
2018-06-25T04:14:28.337Z,84.76
2018-06-25T04:16:56.755Z,83.42
2018-06-25T04:19:24.833Z,82.08
2018-06-25T04:21:52.902Z,83.94
2018-06-25T04:24:21.211Z,83.52
2018-06-25T04:26:49.256Z,84.10
2018-06-25T04:29:17.252Z,82.40
2018-06-25T04:31:45.418Z,82.92
2018-06-25T04:34:14.824Z,82.94
2018-06-25T04:36:42.955Z,84.54
2018-06-25T04:39:11.171Z,84.79
2018-06-25T04:41:39.275Z,84.00
2018-06-25T04:44:07.311Z,84.29
2018-06-25T04:46:35.290Z,83.63
2018-06-25T04:49:03.471Z,84.35
2018-06-25T04:51:31.733Z,83.45
2018-06-25T04:54:00.147Z,82.55
2018-06-25T04:56:28.285Z,78.32
2018-06-25T04:58:56.627Z,79.33
2018-06-25T05:01:24.852Z,72.88
2018-06-25T05:03:53.547Z,70.38
2018-06-25T05:06:22.016Z,63.32
2018-06-25T05:08:50.166Z,64.85
2018-06-25T05:11:18.253Z,66.39
2018-06-25T05:13:47.061Z,68.44
2018-06-25T05:16:15.862Z,69.40
2018-06-25T05:18:48.830Z,68.84
2018-06-25T05:21:19.385Z,70.89
2018-06-25T05:23:48.693Z,71.87
2018-06-25T05:26:17.441Z,72.62
2018-06-25T05:28:46.258Z,72.00
2018-06-25T05:31:21.961Z,70.94
2018-06-25T05:33:52.327Z,73.00
2018-06-25T05:36:21.298Z,73.72
2018-06-25T05:38:50.150Z,74.28
2018-06-25T05:41:18.571Z,74.30
2018-06-25T05:43:47.267Z,74.44
2018-06-25T05:46:16.240Z,74.53
2018-06-25T05:48:44.617Z,73.51
2018-06-25T05:51:13.425Z,75.06
2018-06-25T05:53:42.085Z,75.03
2018-06-25T05:56:10.546Z,71.56
2018-06-25T05:58:38.946Z,73.24
2018-06-25T06:01:07.523Z,71.86
2018-06-25T06:03:36.200Z,71.60
2018-06-25T06:06:05.904Z,70.87
2018-06-25T06:08:34.486Z,71.77
2018-06-25T06:11:03.704Z,70.55
2018-06-25T06:13:32.172Z,68.02
2018-06-25T06:16:01.269Z,67.40
2018-06-25T06:18:29.963Z,66.45
2018-06-25T06:20:58.581Z,67.55
2018-06-25T06:23:27.076Z,67.37
2018-06-25T06:25:56.143Z,63.19
2018-06-25T06:28:24.533Z,65.20
2018-06-25T06:30:53.041Z,67.39
2018-06-25T06:33:21.567Z,60.86
2018-06-25T06:35:50.666Z,62.91
2018-06-25T06:38:19.543Z,63.04
2018-06-25T06:40:48.383Z,62.00
2018-06-25T06:43:18.191Z,58.60
2018-06-25T06:45:47.161Z,60.36
2018-06-25T06:48:15.929Z,64.83
2018-06-25T06:50:44.927Z,62.35
2018-06-25T06:53:13.492Z,63.91
2018-06-25T06:55:42.210Z,62.13
2018-06-25T06:58:11.195Z,60.63
2018-06-25T07:00:39.866Z,62.40
2018-06-25T07:03:08.735Z,62.39
2018-06-25T07:05:37.743Z,62.80
2018-06-25T07:08:06.561Z,60.69
2018-06-25T07:10:35.252Z,60.18
2018-06-25T07:13:04.128Z,61.29
2018-06-25T07:15:32.780Z,60.43
2018-06-25T07:18:01.630Z,61.04
2018-06-25T07:20:30.021Z,60.14
2018-06-25T07:22:58.318Z,62.46
2018-06-25T07:25:26.628Z,62.67
2018-06-25T07:27:55.035Z,66.04
2018-06-25T07:30:23.591Z,64.98
2018-06-25T07:32:51.845Z,62.37
2018-06-25T07:35:20.103Z,62.67
2018-06-25T07:37:48.364Z,62.20
2018-06-25T07:40:16.780Z,61.37
2018-06-25T07:42:45.090Z,58.89
2018-06-25T07:45:13.207Z,60.12
2018-06-25T07:47:41.855Z,58.50
2018-06-25T07:50:10.285Z,54.97
2018-06-25T07:52:38.579Z,55.46
2018-06-25T07:55:06.881Z,57.80
2018-06-25T07:57:35.219Z,57.29
2018-06-25T08:00:03.935Z,54.29
2018-06-25T08:02:32.099Z,54.99
2018-06-25T08:05:00.425Z,54.87
2018-06-25T08:07:28.658Z,55.40
2018-06-25T08:09:56.881Z,54.53
2018-06-25T08:12:25.167Z,53.33
2018-06-25T08:14:53.450Z,55.14
2018-06-25T08:17:22.210Z,54.57
2018-06-25T08:19:50.602Z,57.28
2018-06-25T08:22:19.151Z,54.77
2018-06-25T08:24:47.467Z,59.04
2018-06-25T08:27:16.220Z,56.82
2018-06-25T08:29:44.452Z,56.09
2018-06-25T08:32:12.589Z,59.34
2018-06-25T08:34:40.768Z,59.20
2018-06-25T08:37:09.028Z,56.80
2018-06-25T08:39:37.173Z,59.90
2018-06-25T08:42:05.806Z,58.39
2018-06-25T08:44:34.437Z,56.60
2018-06-25T08:47:02.763Z,54.91
2018-06-25T08:49:31.258Z,57.71
2018-06-25T08:52:00.006Z,58.64
2018-06-25T08:54:28.585Z,56.84
2018-06-25T08:56:57.329Z,59.55
2018-06-25T08:59:25.640Z,55.91
2018-06-25T09:01:54.202Z,50.94
2018-06-25T09:04:22.734Z,54.49
2018-06-25T09:06:50.964Z,51.95
2018-06-25T09:09:19.209Z,53.80
2018-06-25T09:11:47.477Z,53.63
2018-06-25T09:14:15.813Z,54.83
2018-06-25T09:16:44.110Z,54.18
2018-06-25T09:19:12.676Z,53.23
2018-06-25T09:21:41.201Z,50.57
2018-06-25T09:24:09.566Z,53.62
2018-06-25T09:26:41.746Z,53.50
2018-06-25T09:29:11.259Z,54.98
2018-06-25T09:31:39.733Z,51.35
2018-06-25T09:35:11.398Z,52.72
2018-06-25T09:37:39.740Z,53.74
2018-06-25T09:40:08.323Z,52.57
2018-06-25T09:42:36.769Z,53.95
2018-06-25T09:45:06.553Z,55.59
2018-06-25T09:47:34.850Z,56.61
2018-06-25T09:50:03.165Z,51.83
2018-06-25T09:52:31.617Z,52.99
2018-06-25T09:55:00.070Z,53.61
2018-06-25T09:57:28.426Z,52.86
2018-06-25T09:59:56.717Z,51.62
2018-06-25T10:02:25.205Z,50.41
2018-06-25T10:04:53.800Z,51.91
2018-06-25T10:07:22.861Z,49.95
2018-06-25T10:09:51.223Z,51.48
2018-06-25T10:12:19.925Z,52.94
2018-06-25T10:14:48.537Z,50.51
2018-06-25T10:17:16.945Z,50.86
2018-06-25T10:19:45.260Z,51.08
2018-06-25T10:22:13.625Z,51.27
2018-06-25T10:24:42.100Z,53.57
2018-06-25T10:27:10.316Z,47.14
2018-06-25T10:29:38.964Z,47.65
2018-06-25T10:32:07.740Z,52.43
2018-06-25T10:34:36.228Z,48.32
2018-06-25T10:37:04.785Z,52.16
2018-06-25T10:39:33.148Z,50.53
2018-06-25T10:42:01.472Z,57.44
2018-06-25T10:44:30.466Z,49.94
2018-06-25T10:46:59.018Z,52.62
2018-06-25T10:49:27.163Z,45.87
2018-06-25T10:51:55.477Z,45.31
2018-06-25T10:54:23.942Z,42.73
2018-06-25T10:56:52.303Z,43.85
2018-06-25T10:59:20.885Z,42.83
2018-06-25T11:01:49.493Z,45.27
2018-06-25T11:04:17.929Z,46.97
2018-06-25T11:06:46.097Z,45.70
2018-06-25T11:09:14.368Z,48.55
2018-06-25T11:11:42.710Z,49.15
2018-06-25T11:14:10.910Z,48.92
2018-06-25T11:16:39.455Z,49.25
2018-06-25T11:19:07.679Z,49.61
2018-06-25T11:21:35.835Z,47.17
2018-06-25T11:24:04.357Z,52.51
2018-06-25T11:26:32.780Z,52.24
2018-06-25T11:29:01.081Z,44.45
2018-06-25T11:31:29.436Z,45.70
2018-06-25T11:33:57.717Z,45.10
2018-06-25T11:36:25.950Z,47.65
2018-06-25T11:38:54.328Z,44.87
2018-06-25T11:41:22.773Z,45.97
2018-06-25T11:43:52.278Z,43.81
2018-06-25T11:46:20.581Z,42.51
2018-06-25T11:48:48.711Z,42.79
2018-06-25T11:51:17.182Z,46.89
2018-06-25T11:53:46.323Z,42.75
2018-06-25T11:56:14.910Z,45.68
2018-06-25T11:58:43.265Z,45.54
2018-06-25T12:01:11.552Z,48.84
2018-06-25T12:03:40.538Z,44.85
2018-06-25T12:06:09.040Z,46.42
2018-06-25T12:08:37.529Z,46.56
2018-06-25T12:11:06.364Z,45.53
2018-06-25T12:13:34.813Z,46.00
2018-06-25T12:16:03.307Z,47.79
2018-06-25T12:18:31.783Z,48.13
2018-06-25T12:21:00.170Z,44.47
2018-06-25T12:23:28.833Z,46.43
2018-06-25T12:25:57.282Z,47.17
2018-06-25T12:28:25.879Z,47.36
2018-06-25T12:30:54.782Z,42.86
2018-06-25T12:33:23.073Z,43.95
2018-06-25T12:35:51.373Z,45.11
2018-06-25T12:38:19.752Z,47.79
2018-06-25T12:40:48.273Z,48.95
2018-06-25T12:43:16.733Z,46.13
2018-06-25T12:45:44.971Z,46.84
2018-06-25T12:48:13.446Z,46.83
2018-06-25T12:50:41.965Z,50.25
2018-06-25T12:53:10.306Z,47.13
2018-06-25T12:55:38.653Z,46.28
2018-06-25T12:58:06.872Z,47.86
2018-06-25T13:00:35.704Z,46.92
2018-06-25T13:03:03.936Z,47.76
2018-06-25T13:05:32.237Z,48.34
2018-06-25T13:08:00.536Z,49.87
2018-06-25T13:10:28.972Z,48.74
2018-06-25T13:12:57.683Z,47.42
2018-06-25T13:15:25.913Z,48.75
2018-06-25T13:17:54.213Z,45.96
2018-06-25T13:20:22.505Z,46.77
2018-06-25T13:22:50.888Z,42.91
2018-06-25T13:25:19.209Z,41.57
2018-06-25T13:27:47.457Z,40.38
2018-06-25T13:30:15.697Z,40.81
2018-06-25T13:32:44.028Z,37.44
2018-06-25T13:35:12.225Z,42.71
2018-06-25T13:37:40.397Z,41.96
2018-06-25T13:40:08.979Z,41.95
2018-06-25T13:42:37.281Z,40.40
2018-06-25T13:45:05.523Z,42.43
2018-06-25T13:47:33.851Z,44.22
2018-06-25T13:50:02.038Z,42.82
2018-06-25T13:52:30.161Z,45.19
2018-06-25T13:54:58.436Z,42.81
2018-06-25T13:57:26.710Z,42.43
2018-06-25T13:59:54.902Z,42.57
2018-06-25T14:02:23.036Z,44.80
2018-06-25T14:04:51.335Z,44.62
2018-06-25T14:07:19.458Z,43.97
2018-06-25T14:09:47.682Z,44.85
2018-06-25T14:12:15.881Z,44.04
2018-06-25T14:14:44.326Z,47.24
2018-06-25T14:17:12.938Z,43.90
2018-06-25T14:19:41.150Z,44.52
2018-06-25T14:22:09.375Z,43.63
2018-06-25T14:24:43.178Z,45.74
2018-06-25T14:27:12.308Z,46.93
2018-06-25T14:29:40.566Z,47.96
2018-06-25T14:32:14.475Z,48.41
2018-06-25T14:34:47.609Z,47.81
2018-06-25T14:37:16.374Z,47.86
2018-06-25T14:39:44.736Z,47.77
2018-06-25T14:42:13.310Z,47.66
2018-06-25T14:44:41.513Z,48.66
2018-06-25T14:47:09.984Z,49.56
2018-06-25T14:49:38.369Z,50.48
2018-06-25T14:52:06.499Z,52.49
2018-06-25T14:54:35.008Z,52.95
2018-06-25T14:57:03.466Z,53.09
2018-06-25T14:59:31.986Z,54.23
2018-06-25T15:02:00.409Z,54.75
2018-06-25T15:04:28.634Z,55.04
2018-06-25T15:06:56.972Z,55.30
2018-06-25T15:09:25.398Z,53.97
2018-06-25T15:11:53.602Z,53.78
2018-06-25T15:14:21.899Z,54.23
2018-06-25T15:16:50.389Z,52.48
2018-06-25T15:19:18.653Z,51.04
2018-06-25T15:21:46.890Z,52.48
2018-06-25T15:24:15.241Z,52.57
2018-06-25T15:26:43.571Z,53.14
2018-06-25T15:29:11.785Z,53.33
2018-06-25T15:31:40.122Z,53.82
2018-06-25T15:34:08.470Z,52.29
2018-06-25T15:36:36.700Z,51.68
2018-06-25T15:39:08.249Z,52.00
2018-06-25T15:41:36.911Z,52.13
2018-06-25T15:44:05.234Z,52.88
2018-06-25T15:46:33.752Z,52.28
2018-06-25T15:49:01.951Z,51.48
2018-06-25T15:51:30.365Z,51.88
2018-06-25T15:53:58.835Z,51.16
2018-06-25T15:56:27.133Z,52.17
2018-06-25T15:58:55.472Z,52.00
2018-06-25T16:01:23.616Z,51.59
2018-06-25T16:03:52.009Z,51.92
2018-06-25T16:06:20.516Z,50.58
2018-06-25T16:08:48.643Z,50.67
2018-06-25T16:11:16.893Z,49.81
2018-06-25T16:13:45.325Z,49.55
2018-06-25T16:16:13.513Z,49.22
2018-06-25T16:18:41.686Z,51.50
2018-06-25T16:21:10.091Z,49.61
2018-06-25T16:23:38.269Z,49.99
2018-06-25T16:26:06.682Z,50.48
2018-06-25T16:28:34.866Z,51.57
2018-06-25T16:31:03.103Z,51.75
2018-06-25T16:33:31.405Z,51.07
2018-06-25T16:35:59.721Z,50.74
2018-06-25T16:38:28.094Z,54.06
2018-06-25T16:40:57.313Z,56.27
2018-06-25T16:43:25.689Z,54.76
2018-06-25T16:45:54.079Z,56.46
2018-06-25T16:48:22.211Z,54.12
2018-06-25T16:50:50.800Z,54.14
2018-06-25T16:53:19.255Z,55.64
2018-06-25T16:55:47.352Z,56.60
2018-06-25T16:58:15.488Z,55.90
2018-06-25T17:00:43.728Z,55.81
2018-06-25T17:03:11.886Z,57.52
2018-06-25T17:05:40.060Z,59.33
2018-06-25T17:08:08.466Z,57.19
2018-06-25T17:10:36.877Z,57.36
2018-06-25T17:13:05.090Z,57.94
2018-06-25T17:15:33.743Z,59.52
2018-06-25T17:18:03.021Z,56.70
2018-06-25T17:20:32.184Z,60.23
2018-06-25T17:23:00.559Z,59.54
2018-06-25T17:25:33.168Z,58.41
2018-06-25T17:28:01.396Z,61.46
2018-06-25T17:30:29.617Z,59.54
2018-06-25T17:32:57.850Z,60.71
2018-06-25T17:35:26.019Z,62.59
2018-06-25T17:37:54.417Z,63.94
2018-06-25T17:40:22.559Z,66.23
2018-06-25T17:42:50.757Z,61.40
2018-06-25T17:45:19.243Z,63.62
2018-06-25T17:47:47.556Z,64.30
2018-06-25T17:50:16.459Z,66.81
2018-06-25T17:52:44.976Z,66.00
2018-06-25T17:55:13.320Z,63.43
2018-06-25T17:57:41.650Z,66.54
2018-06-25T18:00:10.055Z,69.82
2018-06-25T18:02:38.462Z,68.20
2018-06-25T18:05:06.800Z,67.24
2018-06-25T18:07:35.089Z,67.60
2018-06-25T18:10:03.475Z,69.76
2018-06-25T18:12:31.925Z,71.30
2018-06-25T18:15:00.218Z,71.06
2018-06-25T18:17:28.315Z,72.50
2018-06-25T18:19:56.660Z,73.47
2018-06-25T18:22:25.204Z,73.44
2018-06-25T18:24:53.728Z,72.77
2018-06-25T18:27:22.187Z,74.84
2018-06-25T18:29:51.093Z,74.56
2018-06-25T18:32:19.445Z,74.28
2018-06-25T18:34:47.643Z,76.16
2018-06-25T18:37:16.027Z,74.29
2018-06-25T18:39:44.400Z,77.29
2018-06-25T18:42:12.630Z,74.50
2018-06-25T18:44:41.087Z,75.53
2018-06-25T18:47:09.340Z,75.74
2018-06-25T18:49:37.621Z,76.73
2018-06-25T18:52:05.908Z,76.17
2018-06-25T18:54:34.052Z,76.89
2018-06-25T18:57:02.300Z,75.98
2018-06-25T18:59:30.524Z,77.29
2018-06-25T19:01:58.675Z,77.68
2018-06-25T19:04:26.841Z,76.44
2018-06-25T19:06:55.310Z,79.07
2018-06-25T19:09:23.658Z,78.87
2018-06-25T19:11:52.052Z,78.30
2018-06-25T19:14:26.331Z,77.47
2018-06-25T19:16:54.644Z,77.02
2018-06-25T19:19:22.938Z,78.44
2018-06-25T19:21:51.304Z,79.01
2018-06-25T19:24:19.539Z,80.38
2018-06-25T19:26:47.818Z,79.74
2018-06-25T19:29:16.125Z,80.78
2018-06-25T19:31:44.210Z,80.22
2018-06-25T19:34:12.512Z,79.09
2018-06-25T19:36:40.726Z,76.68
2018-06-25T19:39:11.423Z,75.14
2018-06-25T19:41:40.056Z,79.28
2018-06-25T19:44:08.843Z,79.60
2018-06-25T19:46:37.113Z,81.05
2018-06-25T19:49:05.904Z,80.62
2018-06-25T19:51:34.210Z,81.63
2018-06-25T19:54:02.559Z,81.12
2018-06-25T19:56:30.801Z,81.08
2018-06-25T19:58:59.013Z,80.72
2018-06-25T20:01:27.269Z,80.01
2018-06-25T20:03:55.747Z,79.55
2018-06-25T20:06:24.105Z,80.23
2018-06-25T20:08:52.257Z,80.95
2018-06-25T20:11:20.618Z,80.05
2018-06-25T20:13:49.168Z,80.18
2018-06-25T20:16:17.455Z,80.17
2018-06-25T20:18:45.879Z,80.76
2018-06-25T20:21:14.778Z,80.40
2018-06-25T20:23:43.326Z,80.89
2018-06-25T20:26:11.580Z,82.14
2018-06-25T20:28:40.014Z,81.15
2018-06-25T20:31:08.342Z,81.79
2018-06-25T20:33:36.728Z,81.33
2018-06-25T20:36:06.170Z,81.43
2018-06-25T20:38:34.624Z,78.61
2018-06-25T20:41:02.776Z,79.86
2018-06-25T20:43:31.116Z,80.15
2018-06-25T20:46:03.173Z,81.37
2018-06-25T20:48:31.578Z,80.52
2018-06-25T20:50:59.683Z,80.04
2018-06-25T20:53:27.979Z,80.42
2018-06-25T20:55:57.051Z,81.15
2018-06-25T20:58:25.714Z,81.20
2018-06-25T21:00:53.853Z,80.45
2018-06-25T21:03:22.044Z,80.31
2018-06-25T21:05:50.294Z,81.97
2018-06-25T21:08:18.477Z,81.57
2018-06-25T21:10:46.812Z,80.33
2018-06-25T21:13:15.150Z,81.50
2018-06-25T21:15:43.476Z,81.62
2018-06-25T21:18:11.773Z,81.18
2018-06-25T21:20:40.096Z,82.08
2018-06-25T21:23:08.235Z,82.71
2018-06-25T21:25:36.481Z,82.75
2018-06-25T21:28:04.632Z,83.11
2018-06-25T21:30:32.924Z,77.64
2018-06-25T21:33:01.301Z,80.53
2018-06-25T21:35:29.654Z,82.49
2018-06-25T21:37:57.868Z,80.83
2018-06-25T21:40:26.293Z,83.87
2018-06-25T21:42:54.399Z,84.22
2018-06-25T21:45:22.632Z,83.86
2018-06-25T21:47:50.784Z,83.81
2018-06-25T21:50:18.862Z,84.34
2018-06-25T21:52:47.224Z,85.54
2018-06-25T21:55:15.323Z,84.95
2018-06-25T21:57:43.449Z,85.97
2018-06-25T22:00:12.924Z,85.56
2018-06-25T22:02:41.194Z,83.63
2018-06-25T22:05:09.464Z,80.56
2018-06-25T22:07:37.546Z,76.35
2018-06-25T22:10:06.258Z,74.81
2018-06-25T22:12:34.530Z,73.02
2018-06-25T22:15:02.690Z,74.01
2018-06-25T22:17:30.782Z,76.53
2018-06-25T22:19:58.968Z,76.26
2018-06-25T22:22:27.020Z,77.52
2018-06-25T22:24:55.136Z,75.18
2018-06-25T22:27:23.200Z,76.19
2018-06-25T22:29:51.487Z,78.94
2018-06-25T22:32:19.924Z,76.35
2018-06-25T22:34:47.959Z,75.13
2018-06-25T22:37:16.045Z,68.26
2018-06-25T22:39:44.146Z,66.87
2018-06-25T22:42:12.186Z,70.39
2018-06-25T22:44:40.318Z,71.17
2018-06-25T22:47:08.459Z,74.15
2018-06-25T22:49:36.498Z,74.80
2018-06-25T22:52:04.801Z,74.42
2018-06-25T22:54:32.924Z,75.44
2018-06-25T22:57:01.012Z,74.19
2018-06-25T22:59:29.108Z,74.83
2018-06-25T23:01:57.199Z,76.50
2018-06-25T23:04:25.263Z,77.16
2018-06-25T23:06:53.398Z,78.76
2018-06-25T23:09:21.479Z,79.23
2018-06-25T23:11:49.627Z,72.54
2018-06-25T23:14:17.734Z,73.46
2018-06-25T23:16:46.006Z,73.22
2018-06-25T23:19:14.265Z,72.42
2018-06-25T23:21:42.315Z,71.16
2018-06-25T23:24:10.413Z,71.95
2018-06-25T23:26:38.730Z,73.57
2018-06-25T23:29:06.859Z,69.73
2018-06-25T23:31:34.989Z,69.90
2018-06-25T23:34:03.177Z,68.03
2018-06-25T23:36:31.279Z,67.29
2018-06-25T23:38:59.424Z,68.13
2018-06-25T23:41:27.502Z,68.96
2018-06-25T23:43:55.575Z,67.57
2018-06-25T23:46:23.813Z,67.71
2018-06-25T23:48:51.977Z,67.78
2018-06-25T23:51:19.954Z,67.71
2018-06-25T23:53:48.041Z,67.46
2018-06-25T23:56:16.306Z,66.99
2018-06-25T23:58:44.522Z,67.21
